Time;durP1;ratioP1;P1;durP2;ratioP2;P2;SDS_P1;SDS_P2;PMS_P1;PMS_P2;Temp;Humidity;BMP_temperature;BMP_pressure;BME280_temperature;BME280_humidity;BME280_pressure;Samples;Min_cycle;Max_cycle;Signal;HPM_P1;HPM_P2
2023/06/25 00:01:17;;;;;;;;;3.67;2.00;;;;;;;;5017655;28;45445;-82
2023/06/25 00:03:42;;;;;;;;;3.00;3.00;;;;;;;;5017594;28;45362;-83
2023/06/25 00:06:07;;;;;;;;;2.00;2.00;;;;;;;;5016358;28;45541;-83
2023/06/25 00:08:32;;;;;;;;;2.67;1.67;;;;;;;;5017734;28;45496;-84
2023/06/25 00:10:57;;;;;;;;;4.67;3.00;;;;;;;;5017786;28;45376;-83
2023/06/25 00:13:23;;;;;;;;;2.00;2.00;;;;;;;;5016577;28;45449;-85
2023/06/25 00:15:48;;;;;;;;;5.33;2.33;;;;;;;;5017113;28;46652;-84
2023/06/25 00:18:13;;;;;;;;;1.67;1.33;;;;;;;;4999477;28;45440;-84
2023/06/25 00:20:38;;;;;;;;;2.00;2.00;;;;;;;;5017544;28;45502;-84
2023/06/25 00:23:05;;;;;;;;;2.00;2.00;;;;;;;;5017550;28;45322;-84
2023/06/25 00:25:30;;;;;;;;;5.00;2.00;;;;;;;;5017308;28;46289;-84
2023/06/25 00:27:57;;;;;;;;;3.67;3.00;;;;;;;;5017098;28;45461;-85
2023/06/25 00:30:23;;;;;;;;;2.00;2.00;;;;;;;;5017546;28;45392;-85
2023/06/25 00:32:54;;;;;;;;;5.00;2.00;;;;;;;;5017244;28;45473;-84
2023/06/25 00:35:19;;;;;;;;;5.00;2.00;;;;;;;;5017327;28;46202;-84
2023/06/25 00:37:45;;;;;;;;;4.33;3.33;;;;;;;;5017230;28;45370;-84
2023/06/25 00:40:10;;;;;;;;;2.00;2.00;;;;;;;;5017272;28;45353;-84
2023/06/25 00:42:43;;;;;;;;;2.25;2.25;;;;;;;;5016912;28;45326;-84
2023/06/25 00:45:09;;;;;;;;;2.00;2.00;;;;;;;;5017186;28;46305;-83
2023/06/25 00:47:34;;;;;;;;;4.75;2.00;;;;;;;;5017377;28;45736;-84
2023/06/25 00:50:00;;;;;;;;;3.25;2.00;;;;;;;;5017414;28;45373;-83
2023/06/25 00:52:25;;;;;;;;;3.00;2.00;;;;;;;;5017335;28;45269;-84
2023/06/25 00:54:50;;;;;;;;;2.00;1.00;;;;;;;;5016701;28;45612;-84
2023/06/25 00:57:16;;;;;;;;;3.33;2.00;;;;;;;;5016635;28;45346;-84
2023/06/25 00:59:42;;;;;;;;;4.67;2.00;;;;;;;;4999239;28;45365;-85
2023/06/25 01:02:28;;;;;;;;;2.75;2.00;;;;;;;;5017057;28;45553;-84
2023/06/25 01:04:57;;;;;;;;;2.50;1.00;;;;;;;;5016623;28;46109;-85
2023/06/25 01:07:25;;;;;;;;;2.50;1.50;;;;;;;;5016727;28;45366;-85
2023/06/25 01:09:50;;;;;;;;;1.50;1.50;;;;;;;;5016124;28;45349;-85
2023/06/25 01:12:16;;;;;;;;;3.75;1.75;;;;;;;;5016762;28;45322;-85
2023/06/25 01:14:41;;;;;;;;;4.00;2.50;;;;;;;;5016409;28;46496;-85
2023/06/25 01:17:07;;;;;;;;;3.50;1.75;;;;;;;;5016887;28;45341;-84
2023/06/25 01:19:32;;;;;;;;;5.25;2.00;;;;;;;;5016912;28;45365;-84
2023/06/25 01:21:58;;;;;;;;;2.00;1.33;;;;;;;;5016411;28;45441;-85
2023/06/25 01:24:23;;;;;;;;;3.25;2.00;;;;;;;;5016282;28;47210;-84
2023/06/25 01:26:54;;;;;;;;;4.25;3.00;;;;;;;;5016102;28;45435;-83
2023/06/25 01:29:19;;;;;;;;;1.00;1.00;;;;;;;;5016814;28;45330;-84
2023/06/25 01:31:44;;;;;;;;;4.33;3.00;;;;;;;;5016948;28;45379;-85
2023/06/25 01:34:10;;;;;;;;;1.67;1.33;;;;;;;;5016217;28;45444;-85
2023/06/25 01:36:39;;;;;;;;;2.00;2.00;;;;;;;;5016309;28;45360;-84
2023/06/25 01:39:06;;;;;;;;;1.00;1.00;;;;;;;;5016168;28;45395;-85
2023/06/25 01:41:31;;;;;;;;;3.00;2.00;;;;;;;;5016316;28;45380;-85
2023/06/25 01:43:57;;;;;;;;;4.67;3.00;;;;;;;;5016380;28;46374;-86
2023/06/25 01:46:22;;;;;;;;;3.67;3.00;;;;;;;;5016090;28;45500;-85
2023/06/25 01:48:47;;;;;;;;;2.00;2.00;;;;;;;;5016149;28;45694;-86
2023/06/25 01:51:12;;;;;;;;;2.00;2.00;;;;;;;;5016144;28;45433;-86
2023/06/25 01:53:37;;;;;;;;;4.50;2.00;;;;;;;;5016124;28;47002;-86
2023/06/25 01:56:03;;;;;;;;;2.33;2.00;;;;;;;;5015795;28;45210;-85
2023/06/25 01:58:28;;;;;;;;;3.25;2.50;;;;;;;;5015927;28;45349;-86
2023/06/25 02:00:53;;;;;;;;;2.00;1.00;;;;;;;;5016286;28;45271;-85
2023/06/25 02:03:19;;;;;;;;;2.00;1.00;;;;;;;;5015987;28;46250;-85
2023/06/25 02:05:44;;;;;;;;;5.25;2.00;;;;;;;;5015913;28;45433;-85
2023/06/25 02:08:09;;;;;;;;;4.00;2.00;;;;;;;;5016069;28;45381;-85
2023/06/25 02:10:34;;;;;;;;;3.75;2.25;;;;;;;;5015508;28;45398;-85
2023/06/25 02:12:59;;;;;;;;;3.00;2.00;;;;;;;;4997780;28;48200;-85
2023/06/25 02:15:25;;;;;;;;;1.00;1.00;;;;;;;;5015848;28;45394;-84
2023/06/25 02:17:50;;;;;;;;;2.00;1.00;;;;;;;;5015756;28;45419;-86
2023/06/25 02:20:16;;;;;;;;;3.00;2.00;;;;;;;;4998187;28;45367;-85
2023/06/25 02:22:41;;;;;;;;;5.00;2.25;;;;;;;;5014166;28;47170;-85
2023/06/25 02:25:07;;;;;;;;;4.33;1.00;;;;;;;;5015404;28;45446;-84
2023/06/25 02:27:32;;;;;;;;;2.75;1.00;;;;;;;;5015668;28;45341;-85
2023/06/25 02:29:57;;;;;;;;;2.67;2.00;;;;;;;;5015890;28;45417;-85
2023/06/25 02:32:23;;;;;;;;;4.00;2.33;;;;;;;;5015343;28;47087;-85
2023/06/25 02:34:48;;;;;;;;;3.50;1.00;;;;;;;;5015670;28;45441;-85
2023/06/25 02:37:14;;;;;;;;;3.00;3.00;;;;;;;;5015104;28;45416;-85
2023/06/25 02:39:39;;;;;;;;;1.75;0.75;;;;;;;;5014277;28;45184;-85
2023/06/25 02:42:04;;;;;;;;;3.67;2.00;;;;;;;;5014256;28;46185;-85
2023/06/25 02:44:29;;;;;;;;;6.75;2.00;;;;;;;;5014869;28;46639;-85
2023/06/25 02:46:54;;;;;;;;;1.67;1.33;;;;;;;;5015858;28;45390;-85
2023/06/25 02:49:20;;;;;;;;;1.67;1.67;;;;;;;;4997589;28;45443;-85
2023/06/25 02:51:45;;;;;;;;;2.00;2.00;;;;;;;;4997592;28;48406;-85
2023/06/25 02:54:10;;;;;;;;;2.00;1.00;;;;;;;;4996958;28;45381;-85
2023/06/25 02:56:35;;;;;;;;;2.33;2.33;;;;;;;;5014935;28;45377;-84
2023/06/25 02:59:01;;;;;;;;;2.33;2.00;;;;;;;;5015083;28;45306;-84
2023/06/25 03:01:26;;;;;;;;;1.33;1.33;;;;;;;;4997036;28;46975;-85
2023/06/25 03:03:51;;;;;;;;;5.67;2.00;;;;;;;;5015119;28;45414;-85
2023/06/25 03:06:16;;;;;;;;;2.00;1.00;;;;;;;;5015298;28;45436;-85
2023/06/25 03:08:41;;;;;;;;;1.00;0.75;;;;;;;;5014963;28;45329;-85
2023/06/25 03:11:07;;;;;;;;;2.67;0.67;;;;;;;;5015359;28;45395;-84
2023/06/25 03:13:32;;;;;;;;;2.33;1.33;;;;;;;;5014912;28;45306;-85
2023/06/25 03:15:57;;;;;;;;;5.00;1.67;;;;;;;;4997478;28;45376;-85
2023/06/25 03:18:22;;;;;;;;;3.00;1.33;;;;;;;;5014934;28;45463;-85
2023/06/25 03:20:47;;;;;;;;;2.00;1.33;;;;;;;;5014656;28;46266;-83
2023/06/25 03:23:13;;;;;;;;;1.33;0.67;;;;;;;;5014688;28;45332;-85
2023/06/25 03:25:38;;;;;;;;;6.33;2.33;;;;;;;;5015327;28;45301;-85
2023/06/25 03:28:03;;;;;;;;;0.67;0.00;;;;;;;;5014926;28;45516;-85
2023/06/25 03:30:28;;;;;;;;;2.00;2.00;;;;;;;;5014824;28;47192;-86
2023/06/25 03:32:53;;;;;;;;;0.67;0.67;;;;;;;;5015960;28;45255;-85
2023/06/25 03:35:19;;;;;;;;;2.00;2.00;;;;;;;;5018042;28;45393;-85
2023/06/25 03:37:44;;;;;;;;;0.67;0.67;;;;;;;;5018289;28;45456;-86
2023/06/25 03:40:09;;;;;;;;;2.67;0.67;;;;;;;;5018087;28;46530;-86
2023/06/25 03:42:35;;;;;;;;;2.00;2.00;;;;;;;;5018170;28;45369;-85
2023/06/25 03:45:00;;;;;;;;;4.00;2.00;;;;;;;;5018189;28;45361;-85
2023/06/25 03:47:25;;;;;;;;;3.00;1.00;;;;;;;;5000340;28;45311;-85
2023/06/25 03:49:50;;;;;;;;;1.67;1.67;;;;;;;;4999761;28;47469;-85
2023/06/25 03:52:15;;;;;;;;;8.33;2.00;;;;;;;;5017886;28;45350;-85
2023/06/25 03:54:41;;;;;;;;;3.33;0.67;;;;;;;;5018068;28;45314;-85
2023/06/25 03:57:06;;;;;;;;;2.00;2.00;;;;;;;;5017686;28;45252;-85
2023/06/25 03:59:31;;;;;;;;;4.00;1.67;;;;;;;;4999716;28;47434;-85
2023/06/25 04:01:57;;;;;;;;;2.50;0.75;;;;;;;;5017918;28;45324;-84
2023/06/25 04:04:22;;;;;;;;;2.25;1.25;;;;;;;;5017489;28;45414;-84
2023/06/25 04:06:47;;;;;;;;;3.67;0.67;;;;;;;;5017772;28;45573;-85
2023/06/25 04:09:12;;;;;;;;;1.00;1.00;;;;;;;;5017460;28;45407;-84
2023/06/25 04:11:37;;;;;;;;;3.33;1.67;;;;;;;;5017620;28;45657;-85
2023/06/25 04:14:02;;;;;;;;;1.33;1.33;;;;;;;;5016945;28;45514;-84
2023/06/25 04:16:28;;;;;;;;;0.33;0.33;;;;;;;;5017852;28;45517;-84
2023/06/25 04:18:54;;;;;;;;;1.75;1.75;;;;;;;;5017403;28;46179;-85
2023/06/25 04:21:19;;;;;;;;;0.67;0.67;;;;;;;;5017501;28;45373;-86
2023/06/25 04:23:44;;;;;;;;;1.00;1.00;;;;;;;;5017503;28;45306;-84
2023/06/25 04:26:09;;;;;;;;;2.75;1.50;;;;;;;;5017691;28;45279;-85
2023/06/25 04:28:34;;;;;;;;;1.67;1.67;;;;;;;;5017332;28;47216;-84
2023/06/25 04:31:00;;;;;;;;;1.67;1.67;;;;;;;;5017377;28;45439;-87
2023/06/25 04:33:25;;;;;;;;;4.00;1.67;;;;;;;;5017152;28;45468;-87
2023/06/25 04:35:50;;;;;;;;;1.33;0.00;;;;;;;;5017364;28;45522;-85
2023/06/25 04:38:15;;;;;;;;;1.33;1.33;;;;;;;;5017046;28;46496;-85
2023/06/25 04:40:41;;;;;;;;;0.00;0.00;;;;;;;;5017619;28;45461;-85
2023/06/25 04:43:06;;;;;;;;;1.25;1.25;;;;;;;;4999507;28;45350;-85
2023/06/25 04:45:31;;;;;;;;;1.75;1.00;;;;;;;;5016441;28;45506;-84
2023/06/25 04:47:56;;;;;;;;;1.33;1.33;;;;;;;;5016661;28;45533;-85
2023/06/25 04:50:22;;;;;;;;;2.33;0.67;;;;;;;;5017256;28;45480;-85
2023/06/25 04:52:47;;;;;;;;;3.00;1.00;;;;;;;;5016974;28;45357;-85
2023/06/25 04:55:12;;;;;;;;;2.00;1.33;;;;;;;;5017300;28;45561;-85
2023/06/25 04:57:38;;;;;;;;;1.67;1.67;;;;;;;;5016845;28;46220;-85
2023/06/25 05:00:04;;;;;;;;;3.00;0.50;;;;;;;;5017009;28;45788;-84
2023/06/25 05:02:29;;;;;;;;;2.25;1.50;;;;;;;;5016515;28;45613;-85
2023/06/25 05:04:54;;;;;;;;;0.00;0.00;;;;;;;;5016516;28;45329;-86
2023/06/25 05:07:19;;;;;;;;;1.67;0.33;;;;;;;;5016546;28;45538;-85
2023/06/25 05:09:45;;;;;;;;;2.00;0.67;;;;;;;;5016172;28;45448;-85
2023/06/25 05:12:10;;;;;;;;;1.67;0.00;;;;;;;;5016141;28;45319;-86
2023/06/25 05:14:36;;;;;;;;;0.33;0.33;;;;;;;;5015388;28;45310;-86
2023/06/25 05:17:01;;;;;;;;;0.75;0.50;;;;;;;;5016084;28;46658;-86
2023/06/25 05:19:26;;;;;;;;;2.00;0.67;;;;;;;;5016043;28;45357;-86
2023/06/25 05:21:51;;;;;;;;;0.00;0.00;;;;;;;;5016706;28;45377;-86
2023/06/25 05:24:17;;;;;;;;;1.00;1.00;;;;;;;;4998579;28;45723;-86
2023/06/25 05:26:42;;;;;;;;;1.25;1.25;;;;;;;;5015939;28;46060;-86
2023/06/25 05:29:07;;;;;;;;;2.67;1.67;;;;;;;;5015827;28;45423;-85
2023/06/25 05:31:32;;;;;;;;;1.00;0.67;;;;;;;;5015845;28;45477;-85
2023/06/25 05:33:57;;;;;;;;;2.00;1.33;;;;;;;;5016030;28;45317;-85
2023/06/25 05:36:23;;;;;;;;;2.33;1.33;;;;;;;;5016259;28;46354;-85
2023/06/25 05:38:48;;;;;;;;;1.00;1.00;;;;;;;;5015902;28;45315;-85
2023/06/25 05:41:13;;;;;;;;;4.25;1.75;;;;;;;;5015634;28;45313;-86
2023/06/25 05:43:39;;;;;;;;;2.00;2.00;;;;;;;;5015916;28;45548;-85
2023/06/25 05:46:04;;;;;;;;;4.50;2.00;;;;;;;;5015214;28;45438;-86
2023/06/25 05:48:30;;;;;;;;;2.33;1.67;;;;;;;;5015501;28;45770;-85
2023/06/25 05:50:55;;;;;;;;;2.00;1.75;;;;;;;;5014884;28;45418;-84
2023/06/25 05:53:22;;;;;;;;;4.67;1.00;;;;;;;;4997578;28;45458;-86
2023/06/25 05:55:47;;;;;;;;;2.75;1.00;;;;;;;;5015616;28;45432;-85
2023/06/25 05:58:13;;;;;;;;;2.33;1.00;;;;;;;;5015585;28;45456;-86
2023/06/25 06:00:38;;;;;;;;;2.00;1.67;;;;;;;;5015118;28;45449;-85
2023/06/25 06:03:03;;;;;;;;;3.33;1.33;;;;;;;;5015225;28;45472;-86
2023/06/25 06:05:28;;;;;;;;;1.67;1.67;;;;;;;;5015457;28;46388;-86
2023/06/25 06:07:53;;;;;;;;;3.00;1.00;;;;;;;;5014592;28;45431;-86
2023/06/25 06:10:19;;;;;;;;;4.00;2.67;;;;;;;;4997810;28;45332;-86
2023/06/25 06:12:44;;;;;;;;;2.75;1.75;;;;;;;;5015534;28;45568;-87
2023/06/25 06:15:09;;;;;;;;;2.67;1.67;;;;;;;;5014639;28;45383;-86
2023/06/25 06:17:35;;;;;;;;;3.00;2.67;;;;;;;;5015697;28;45364;-86
2023/06/25 06:20:00;;;;;;;;;2.67;2.00;;;;;;;;5015028;28;45422;-86
2023/06/25 06:22:25;;;;;;;;;1.50;1.25;;;;;;;;5014744;28;45401;-86
2023/06/25 06:24:50;;;;;;;;;4.00;0.67;;;;;;;;5015333;28;45515;-86
2023/06/25 06:27:16;;;;;;;;;2.50;2.50;;;;;;;;5014532;28;45429;-86
2023/06/25 06:29:41;;;;;;;;;1.67;0.67;;;;;;;;5015382;28;45359;-86
2023/06/25 06:32:06;;;;;;;;;1.67;1.67;;;;;;;;5015428;28;45531;-87
2023/06/25 06:34:32;;;;;;;;;3.00;2.50;;;;;;;;5014689;28;45686;-85
2023/06/25 06:36:57;;;;;;;;;1.67;1.67;;;;;;;;5014577;28;45418;-86
2023/06/25 06:39:22;;;;;;;;;2.33;2.00;;;;;;;;5014856;28;45439;-87
2023/06/25 06:41:47;;;;;;;;;2.00;2.00;;;;;;;;5014362;28;45354;-87
2023/06/25 06:44:14;;;;;;;;;4.67;3.00;;;;;;;;5015067;28;45723;-88
2023/06/25 06:46:39;;;;;;;;;3.00;2.50;;;;;;;;5015825;28;45355;-86
2023/06/25 06:49:05;;;;;;;;;2.00;2.00;;;;;;;;5015428;28;46938;-89
2023/06/25 06:51:31;;;;;;;;;4.00;3.50;;;;;;;;5006128;28;45475;-86
2023/06/25 06:53:56;;;;;;;;;5.00;3.00;;;;;;;;5015090;28;46468;-86
2023/06/25 06:56:21;;;;;;;;;4.67;3.00;;;;;;;;5015545;28;45281;-85
2023/06/25 06:58:46;;;;;;;;;5.67;2.00;;;;;;;;5014802;28;45353;-86
2023/06/25 07:01:11;;;;;;;;;3.00;2.50;;;;;;;;5015154;28;45412;-84
2023/06/25 07:03:37;;;;;;;;;3.67;2.00;;;;;;;;4996512;28;46276;-85
2023/06/25 07:06:02;;;;;;;;;4.67;3.00;;;;;;;;5014872;28;45571;-85
2023/06/25 07:08:27;;;;;;;;;6.33;4.00;;;;;;;;5017252;28;45353;-84
2023/06/25 07:10:52;;;;;;;;;4.00;3.00;;;;;;;;5000871;28;45311;-84
2023/06/25 07:13:17;;;;;;;;;4.00;3.67;;;;;;;;4999975;28;48274;-85
2023/06/25 07:15:42;;;;;;;;;3.67;3.00;;;;;;;;5018594;28;45328;-85
2023/06/25 07:18:08;;;;;;;;;5.00;3.33;;;;;;;;5018683;28;45505;-85
2023/06/25 07:20:33;;;;;;;;;5.33;3.00;;;;;;;;5018515;28;45366;-85
2023/06/25 07:22:58;;;;;;;;;7.00;3.67;;;;;;;;5018629;28;46478;-85
2023/06/25 07:25:23;;;;;;;;;4.67;3.33;;;;;;;;5000232;28;45330;-86
2023/06/25 07:27:48;;;;;;;;;5.33;4.67;;;;;;;;5018071;28;45594;-88
2023/06/25 07:30:14;;;;;;;;;2.00;2.00;;;;;;;;5018589;28;45529;-87
2023/06/25 07:32:39;;;;;;;;;5.00;3.00;;;;;;;;5018316;28;45376;-88
2023/06/25 07:35:04;;;;;;;;;2.75;2.75;;;;;;;;5018191;28;45381;-90
2023/06/25 07:37:30;;;;;;;;;4.00;3.00;;;;;;;;5018085;28;45668;-89
2023/06/25 07:39:55;;;;;;;;;4.00;4.00;;;;;;;;5018297;28;45329;-87
2023/06/25 07:42:20;;;;;;;;;2.00;2.00;;;;;;;;5017546;28;46438;-85
2023/06/25 07:44:45;;;;;;;;;3.00;3.00;;;;;;;;5017723;28;45333;-84
2023/06/25 07:47:11;;;;;;;;;5.00;4.00;;;;;;;;5018156;28;45435;-87
2023/06/25 07:49:36;;;;;;;;;7.00;5.00;;;;;;;;5017436;28;45455;-87
2023/06/25 07:52:03;;;;;;;;;3.00;2.00;;;;;;;;5016532;28;46145;-87
2023/06/25 07:54:28;;;;;;;;;5.00;2.25;;;;;;;;5016950;28;45755;-88
2023/06/25 07:56:53;;;;;;;;;4.00;3.00;;;;;;;;5012152;28;45498;-87
2023/06/25 07:59:18;;;;;;;;;4.67;4.33;;;;;;;;5017842;28;45425;-86
2023/06/25 08:01:44;;;;;;;;;8.00;4.00;;;;;;;;5017248;28;47244;-86
2023/06/25 08:04:10;;;;;;;;;2.25;2.25;;;;;;;;5017388;28;45643;-87
2023/06/25 08:06:35;;;;;;;;;2.67;2.67;;;;;;;;5017537;28;45377;-86
2023/06/25 08:09:00;;;;;;;;;5.00;3.00;;;;;;;;4988682;28;45456;-89
2023/06/25 08:11:25;;;;;;;;;5.00;4.00;;;;;;;;5015603;28;47742;-87
2023/06/25 08:13:50;;;;;;;;;4.00;4.00;;;;;;;;5016935;28;45394;-87
2023/06/25 08:16:16;;;;;;;;;6.33;4.00;;;;;;;;5017233;28;45290;-85
2023/06/25 08:18:41;;;;;;;;;5.25;3.25;;;;;;;;5016700;28;45392;-86
2023/06/25 08:21:06;;;;;;;;;6.33;3.33;;;;;;;;5016746;28;47004;-82
2023/06/25 08:23:32;;;;;;;;;5.50;4.75;;;;;;;;5016984;28;45739;-83
2023/06/25 08:25:57;;;;;;;;;5.67;5.00;;;;;;;;5016783;28;45260;-84
2023/06/25 08:28:22;;;;;;;;;5.00;3.67;;;;;;;;5016653;28;45378;-83
2023/06/25 08:30:47;;;;;;;;;7.00;4.00;;;;;;;;5016703;28;46271;-83
2023/06/25 08:33:13;;;;;;;;;3.50;3.00;;;;;;;;5016826;28;45344;-84
2023/06/25 08:35:38;;;;;;;;;7.50;4.25;;;;;;;;5016487;28;45219;-84
2023/06/25 08:38:03;;;;;;;;;5.00;4.00;;;;;;;;4998927;28;45479;-85
2023/06/25 08:40:30;;;;;;;;;4.00;4.00;;;;;;;;5016163;28;46193;-85
2023/06/25 08:42:55;;;;;;;;;5.50;3.00;;;;;;;;5016984;28;45384;-82
2023/06/25 08:45:20;;;;;;;;;5.67;3.33;;;;;;;;5016984;28;45567;-83
2023/06/25 08:47:48;;;;;;;;;5.00;3.67;;;;;;;;5016651;28;45454;-84
2023/06/25 08:50:14;;;;;;;;;7.50;5.00;;;;;;;;5016568;28;46417;-84
2023/06/25 08:52:39;;;;;;;;;8.25;4.50;;;;;;;;5016352;28;45504;-84
2023/06/25 08:55:11;;;;;;;;;5.00;5.00;;;;;;;;5016266;28;45346;-85
2023/06/25 08:57:36;;;;;;;;;4.50;4.00;;;;;;;;5016014;28;45389;-82
2023/06/25 09:00:03;;;;;;;;;6.33;5.67;;;;;;;;5016941;28;45661;-82
2023/06/25 09:02:28;;;;;;;;;5.75;4.50;;;;;;;;5016733;28;45347;-83
2023/06/25 09:05:01;;;;;;;;;8.00;4.00;;;;;;;;5017249;28;45310;-82
2023/06/25 09:07:26;;;;;;;;;5.00;4.00;;;;;;;;5016965;28;45353;-83
2023/06/25 09:09:52;;;;;;;;;3.33;3.33;;;;;;;;5016505;28;46008;-82
2023/06/25 09:12:24;;;;;;;;;8.00;4.00;;;;;;;;5016483;28;45382;-82
2023/06/25 09:14:49;;;;;;;;;5.50;4.00;;;;;;;;5016644;28;45464;-83
2023/06/25 09:17:19;;;;;;;;;5.00;5.00;;;;;;;;5015541;28;45480;-82
2023/06/25 09:19:44;;;;;;;;;9.75;4.75;;;;;;;;5016213;28;46361;-88
2023/06/25 09:22:09;;;;;;;;;4.00;4.00;;;;;;;;5016326;28;45723;-81
2023/06/25 09:24:40;;;;;;;;;4.33;3.33;;;;;;;;5012283;28;45444;-82
2023/06/25 09:27:06;;;;;;;;;5.75;3.75;;;;;;;;5012442;28;45551;-83
2023/06/25 09:29:34;;;;;;;;;3.33;3.33;;;;;;;;5016160;28;46641;-80
2023/06/25 09:32:05;;;;;;;;;5.00;4.25;;;;;;;;5013945;28;45519;-81
2023/06/25 09:34:33;;;;;;;;;3.25;3.25;;;;;;;;5015509;28;45353;-83
2023/06/25 09:37:01;;;;;;;;;4.50;3.00;;;;;;;;5016697;28;45573;-80
2023/06/25 09:39:26;;;;;;;;;3.75;2.50;;;;;;;;5014863;28;45537;-81
2023/06/25 09:41:51;;;;;;;;;2.33;2.00;;;;;;;;5015764;28;45255;-87
2023/06/25 09:44:17;;;;;;;;;4.33;3.00;;;;;;;;5010408;28;45447;-87
2023/06/25 09:46:44;;;;;;;;;5.00;3.00;;;;;;;;5010897;28;45484;-88
2023/06/25 09:49:09;;;;;;;;;5.00;3.00;;;;;;;;5015896;28;46590;-87
2023/06/25 09:51:46;;;;;;;;;6.33;3.67;;;;;;;;5016161;28;45342;-87
2023/06/25 09:54:15;;;;;;;;;4.50;4.00;;;;;;;;5014927;28;45385;-86
2023/06/25 09:56:42;;;;;;;;;4.75;3.00;;;;;;;;5015511;28;45547;-85
2023/06/25 09:59:07;;;;;;;;;3.00;3.00;;;;;;;;5015254;28;46455;-85
2023/06/25 10:01:32;;;;;;;;;5.00;3.50;;;;;;;;5015936;28;45240;-87
2023/06/25 10:03:58;;;;;;;;;7.25;4.50;;;;;;;;5015888;28;45385;-86
2023/06/25 10:06:23;;;;;;;;;3.67;3.00;;;;;;;;5015976;28;45406;-88
2023/06/25 10:08:50;;;;;;;;;3.00;3.00;;;;;;;;5015136;28;45261;-85
2023/06/25 10:11:16;;;;;;;;;4.75;4.25;;;;;;;;5015697;28;45871;-86
2023/06/25 10:13:44;;;;;;;;;4.00;3.00;;;;;;;;5015335;28;45480;-89
2023/06/25 10:16:09;;;;;;;;;4.00;4.00;;;;;;;;5014856;28;45522;-85
2023/06/25 10:18:41;;;;;;;;;4.00;2.67;;;;;;;;5018227;28;47205;-88
2023/06/25 10:21:07;;;;;;;;;5.25;2.25;;;;;;;;4998222;28;45650;-90
2023/06/25 10:23:35;;;;;;;;;5.67;3.00;;;;;;;;4998285;28;45343;-90
2023/06/25 10:26:00;;;;;;;;;3.25;2.50;;;;;;;;5015870;28;45395;-90
2023/06/25 10:28:30;;;;;;;;;5.33;3.00;;;;;;;;5016248;28;46410;-88
2023/06/25 10:30:56;;;;;;;;;4.00;3.00;;;;;;;;4999298;28;45398;-89
2023/06/25 10:33:21;;;;;;;;;4.00;4.00;;;;;;;;5015423;28;45326;-90
2023/06/25 10:35:48;;;;;;;;;4.75;3.00;;;;;;;;5016090;28;45591;-86
2023/06/25 10:38:13;;;;;;;;;2.25;2.25;;;;;;;;5016575;28;46758;-92
2023/06/25 10:40:39;;;;;;;;;3.50;2.25;;;;;;;;5016205;28;45411;-89
2023/06/25 10:43:05;;;;;;;;;6.00;6.00;;;;;;;;5015747;28;45353;-93
2023/06/25 10:45:30;;;;;;;;;5.25;5.25;;;;;;;;4999815;28;45318;-89
2023/06/25 10:48:03;;;;;;;;;7.00;6.25;;;;;;;;4999376;28;45503;-92
2023/06/25 10:50:32;;;;;;;;;3.75;2.75;;;;;;;;5006750;28;45723;-93
2023/06/25 10:52:57;;;;;;;;;5.75;3.50;;;;;;;;5019643;28;45401;-91
2023/06/25 10:55:23;;;;;;;;;4.00;3.00;;;;;;;;5019582;28;45245;-91
2023/06/25 10:57:48;;;;;;;;;5.75;5.00;;;;;;;;5001948;28;48424;-91
2023/06/25 11:00:14;;;;;;;;;9.33;6.67;;;;;;;;5019658;28;45381;-90
2023/06/25 11:02:39;;;;;;;;;4.00;4.00;;;;;;;;5019234;28;45327;-88
2023/06/25 11:05:04;;;;;;;;;8.00;4.00;;;;;;;;5019067;28;45394;-89
2023/06/25 11:07:29;;;;;;;;;5.25;3.00;;;;;;;;5019533;28;46155;-85
2023/06/25 11:09:55;;;;;;;;;5.00;3.75;;;;;;;;5018721;28;45460;-87
2023/06/25 11:12:21;;;;;;;;;4.00;3.50;;;;;;;;5019328;28;45420;-90
2023/06/25 11:14:46;;;;;;;;;3.33;2.00;;;;;;;;5020731;28;45291;-92
2023/06/25 11:17:15;;;;;;;;;3.50;2.00;;;;;;;;5002697;28;47648;-93
2023/06/25 11:19:40;;;;;;;;;6.50;3.75;;;;;;;;5019830;28;45789;-94
2023/06/25 11:22:08;;;;;;;;;3.00;3.00;;;;;;;;5020635;28;45819;-93
2023/06/25 11:24:37;;;;;;;;;4.00;4.00;;;;;;;;5020472;28;45375;-92
2023/06/25 11:27:02;;;;;;;;;5.50;2.25;;;;;;;;5020652;28;46010;-92
2023/06/25 11:29:36;;;;;;;;;4.50;3.00;;;;;;;;5021075;28;45321;-93
2023/06/25 11:32:02;;;;;;;;;6.25;3.50;;;;;;;;5021582;28;45915;-94
2023/06/25 11:34:27;;;;;;;;;4.00;4.00;;;;;;;;5026111;28;45577;-96
2023/06/25 11:36:53;;;;;;;;;6.00;3.00;;;;;;;;5020961;28;45947;-90
2023/06/25 11:39:18;;;;;;;;;6.00;3.00;;;;;;;;5020710;28;45341;-88
2023/06/25 11:41:44;;;;;;;;;4.00;4.00;;;;;;;;5019668;28;45377;-91
2023/06/25 11:44:15;;;;;;;;;4.25;3.00;;;;;;;;5019801;28;45573;-90
2023/06/25 11:46:41;;;;;;;;;3.00;2.25;;;;;;;;5021557;28;46620;-93
2023/06/25 11:49:08;;;;;;;;;13.25;10.00;;;;;;;;5018625;28;45365;-91
2023/06/25 11:51:33;;;;;;;;;6.00;5.00;;;;;;;;5019415;28;45433;-90
2023/06/25 11:53:58;;;;;;;;;2.00;2.00;;;;;;;;5018318;28;45633;-88
2023/06/25 11:56:24;;;;;;;;;6.00;5.00;;;;;;;;5019082;28;45540;-93
2023/06/25 11:58:49;;;;;;;;;4.00;3.00;;;;;;;;5020537;28;45353;-93
2023/06/25 12:01:15;;;;;;;;;3.00;2.00;;;;;;;;5005105;28;45292;-96
2023/06/25 12:03:40;;;;;;;;;4.25;2.75;;;;;;;;5011564;28;45429;-96
2023/06/25 12:06:06;;;;;;;;;5.00;2.67;;;;;;;;5002677;28;47273;-96
2023/06/25 12:08:32;;;;;;;;;4.00;4.00;;;;;;;;5020435;28;45214;-91
2023/06/25 12:10:57;;;;;;;;;6.50;4.00;;;;;;;;5020770;28;45308;-92
2023/06/25 12:13:22;;;;;;;;;6.00;3.00;;;;;;;;5021102;28;45632;-92
2023/06/25 12:15:47;;;;;;;;;5.67;4.00;;;;;;;;5020396;28;46425;-96
2023/06/25 12:18:13;;;;;;;;;3.33;3.00;;;;;;;;5020299;28;45495;-96
2023/06/25 12:20:38;;;;;;;;;3.67;2.67;;;;;;;;5023010;28;45428;-93
2023/06/25 12:23:03;;;;;;;;;7.00;4.33;;;;;;;;5019222;28;45310;-94
2023/06/25 12:25:29;;;;;;;;;5.33;3.33;;;;;;;;5019466;28;45577;-94
2023/06/25 12:27:54;;;;;;;;;5.50;3.00;;;;;;;;5018955;28;45325;-92
2023/06/25 12:30:20;;;;;;;;;4.00;2.75;;;;;;;;5019382;28;45258;-93
2023/06/25 12:32:45;;;;;;;;;7.00;4.00;;;;;;;;5023967;28;45366;-94
2023/06/25 12:35:10;;;;;;;;;3.33;3.00;;;;;;;;5026215;28;46369;-95
2023/06/25 12:37:35;;;;;;;;;3.00;3.00;;;;;;;;5021125;28;45380;-89
2023/06/25 12:40:01;;;;;;;;;3.75;3.00;;;;;;;;5003038;28;45425;-85
2023/06/25 12:42:26;;;;;;;;;5.50;2.75;;;;;;;;5018571;28;45281;-91
2023/06/25 12:44:51;;;;;;;;;6.67;4.67;;;;;;;;5021929;28;46491;-88
2023/06/25 12:47:16;;;;;;;;;5.67;4.00;;;;;;;;5020331;28;45346;-95
2023/06/25 12:49:42;;;;;;;;;3.33;3.33;;;;;;;;5020814;28;45353;-89
2023/06/25 12:52:07;;;;;;;;;4.00;3.00;;;;;;;;5019921;28;45346;-96
2023/06/25 12:54:32;;;;;;;;;3.00;3.00;;;;;;;;5024860;28;46224;-90
2023/06/25 12:56:57;;;;;;;;;5.00;4.67;;;;;;;;5000696;28;45347;-94
2023/06/25 12:59:23;;;;;;;;;3.67;3.00;;;;;;;;5018142;28;45520;-93
2023/06/25 13:01:48;;;;;;;;;10.50;4.00;;;;;;;;5018812;28;45515;-95
2023/06/25 13:04:14;;;;;;;;;2.00;2.00;;;;;;;;5019820;28;45999;-95
2023/06/25 13:06:39;;;;;;;;;2.00;2.00;;;;;;;;5018450;28;45333;-95
2023/06/25 13:09:05;;;;;;;;;3.00;2.00;;;;;;;;5002518;28;45337;-92
2023/06/25 13:11:30;;;;;;;;;6.00;2.50;;;;;;;;5019026;28;45577;-92
2023/06/25 13:13:55;;;;;;;;;4.50;3.75;;;;;;;;5000896;28;47872;-92
2023/06/25 13:16:20;;;;;;;;;6.33;4.00;;;;;;;;5001216;28;45252;-91
2023/06/25 13:18:46;;;;;;;;;5.00;3.00;;;;;;;;5000866;28;45435;-93
2023/06/25 13:21:11;;;;;;;;;4.25;3.25;;;;;;;;5019960;28;45335;-93
2023/06/25 13:23:37;;;;;;;;;6.75;4.00;;;;;;;;5002957;28;47015;-93
2023/06/25 13:26:02;;;;;;;;;3.25;3.00;;;;;;;;5020266;28;45729;-95
2023/06/25 13:28:28;;;;;;;;;3.00;3.00;;;;;;;;5003046;28;45364;-93
2023/06/25 13:30:53;;;;;;;;;4.00;2.00;;;;;;;;5020313;28;45531;-95
2023/06/25 13:33:18;;;;;;;;;6.25;3.25;;;;;;;;5019066;28;46370;-95
2023/06/25 13:35:44;;;;;;;;;4.00;4.00;;;;;;;;5018852;28;45250;-90
2023/06/25 13:38:09;;;;;;;;;6.00;5.00;;;;;;;;5018110;28;45325;-92
2023/06/25 13:40:34;;;;;;;;;5.00;3.00;;;;;;;;5018199;28;45223;-91
2023/06/25 13:43:01;;;;;;;;;3.33;2.33;;;;;;;;5018891;28;46450;-92
2023/06/25 13:45:26;;;;;;;;;2.75;2.75;;;;;;;;5017372;28;45304;-92
2023/06/25 13:47:52;;;;;;;;;5.00;3.25;;;;;;;;5017968;28;45724;-94
2023/06/25 13:50:17;;;;;;;;;5.00;4.33;;;;;;;;5017733;28;45390;-93
2023/06/25 13:52:42;;;;;;;;;1.00;1.00;;;;;;;;5017213;28;46281;-93
2023/06/25 13:55:07;;;;;;;;;2.67;2.00;;;;;;;;5000405;28;45299;-95
2023/06/25 13:57:50;;;;;;;;;3.50;2.00;;;;;;;;5111439;27;46127;-94
2023/06/25 14:00:16;;;;;;;;;2.33;1.00;;;;;;;;5115051;27;45364;-91
2023/06/25 14:02:44;;;;;;;;;3.75;3.00;;;;;;;;5115661;27;45295;-96
2023/06/25 14:05:10;;;;;;;;;3.25;3.25;;;;;;;;5116267;27;45515;-94
2023/06/25 14:07:35;;;;;;;;;5.00;4.25;;;;;;;;5110554;27;46341;-94
2023/06/25 14:10:00;;;;;;;;;4.33;3.33;;;;;;;;5095011;27;45328;-92
2023/06/25 14:12:26;;;;;;;;;3.00;3.00;;;;;;;;5098308;27;45441;-90
2023/06/25 14:14:51;;;;;;;;;8.50;4.00;;;;;;;;5098354;27;45461;-96
2023/06/25 14:17:16;;;;;;;;;5.00;3.67;;;;;;;;5098327;27;45812;-95
2023/06/25 14:19:41;;;;;;;;;5.00;3.00;;;;;;;;5096574;27;45498;-94
2023/06/25 14:22:07;;;;;;;;;3.67;3.67;;;;;;;;5095837;27;45511;-90
2023/06/25 14:24:32;;;;;;;;;3.67;2.67;;;;;;;;5095952;27;45492;-93
2023/06/25 14:26:57;;;;;;;;;5.00;3.00;;;;;;;;5095529;27;45433;-94
2023/06/25 14:29:22;;;;;;;;;3.00;3.00;;;;;;;;5093812;27;45523;-88
2023/06/25 14:31:47;;;;;;;;;3.00;2.67;;;;;;;;5095366;27;45318;-89
2023/06/25 14:34:13;;;;;;;;;2.00;2.00;;;;;;;;5095357;27;45299;-96